createdAt,value
2023-02-08T00:01:28.341Z,26.23
2023-02-08T00:03:56.705Z,26.67
2023-02-08T00:06:25.102Z,27.50
2023-02-08T00:08:54.675Z,29.43
2023-02-08T00:11:23.049Z,29.08
2023-02-08T00:13:51.336Z,29.37
2023-02-08T00:16:20.189Z,29.07
2023-02-08T00:18:48.562Z,28.70
2023-02-08T00:21:19.418Z,28.20
2023-02-08T00:23:48.279Z,30.07
2023-02-08T00:26:18.244Z,28.40
2023-02-08T00:28:47.217Z,28.13
2023-02-08T00:31:18.661Z,26.27
2023-02-08T00:33:47.030Z,25.40
2023-02-08T00:36:15.416Z,27.17
2023-02-08T00:38:44.196Z,28.50
2023-02-08T00:41:12.512Z,26.57
2023-02-08T00:43:42.195Z,26.23
2023-02-08T00:46:11.178Z,26.52
2023-02-08T00:48:39.592Z,26.27
2023-02-08T00:51:11.858Z,26.30
2023-02-08T00:53:43.132Z,27.23
2023-02-08T00:56:13.789Z,25.93
2023-02-08T00:58:44.281Z,26.53
2023-02-08T01:03:43.071Z,26.33
2023-02-08T01:06:16.805Z,25.48
2023-02-08T01:08:46.568Z,25.40
2023-02-08T01:11:18.404Z,25.57
2023-02-08T01:13:48.309Z,25.87
2023-02-08T01:16:19.647Z,25.95
2023-02-08T01:18:50.890Z,26.20
2023-02-08T01:21:23.518Z,26.20
2023-02-08T01:23:52.472Z,25.67
2023-02-08T01:26:23.009Z,25.13
2023-02-08T01:31:24.542Z,25.23
2023-02-08T01:33:53.729Z,24.43
2023-02-08T01:36:23.155Z,23.70
2023-02-08T01:38:51.429Z,23.93
2023-02-08T01:41:23.095Z,23.93
2023-02-08T01:44:10.583Z,23.53
2023-02-08T01:46:40.890Z,25.10
2023-02-08T01:49:14.341Z,24.42
2023-02-08T01:51:46.617Z,24.67
2023-02-08T01:54:18.578Z,23.67
2023-02-08T01:56:49.013Z,24.63
2023-02-08T01:59:24.091Z,24.08
2023-02-08T02:01:55.757Z,25.13
2023-02-08T02:04:24.472Z,24.27
2023-02-08T02:06:58.266Z,24.37
2023-02-08T02:09:32.415Z,24.10
2023-02-08T02:12:02.370Z,23.93
2023-02-08T02:14:32.274Z,24.43
2023-02-08T02:17:01.766Z,23.15
2023-02-08T02:19:40.547Z,24.73
2023-02-08T02:22:34.938Z,25.07
2023-02-08T02:25:38.648Z,24.20
2023-02-08T02:28:48.252Z,24.77
2023-02-08T02:31:55.564Z,25.37
2023-02-08T02:34:33.756Z,24.17
2023-02-08T02:37:14.460Z,24.17
2023-02-08T02:39:52.169Z,25.73
2023-02-08T02:42:49.694Z,24.17
2023-02-08T02:45:34.913Z,24.93
2023-02-08T02:48:13.455Z,26.83
2023-02-08T02:50:46.779Z,25.70
2023-02-08T02:53:23.940Z,26.73
2023-02-08T02:55:59.521Z,23.90
2023-02-08T02:58:30.008Z,24.97
2023-02-08T03:03:34.192Z,24.67
2023-02-08T03:06:06.388Z,26.37
2023-02-08T03:09:20.079Z,25.00
2023-02-08T03:11:57.700Z,24.17
2023-02-08T03:14:36.036Z,23.80
2023-02-08T03:17:24.089Z,25.20
2023-02-08T03:20:06.309Z,24.90
2023-02-08T03:22:46.807Z,25.47
2023-02-08T03:27:57.815Z,26.77
2023-02-08T03:30:34.842Z,26.37
2023-02-08T03:33:08.204Z,25.53
2023-02-08T03:35:43.353Z,25.17
2023-02-08T03:38:17.258Z,27.17
2023-02-08T03:40:49.417Z,26.33
2023-02-08T03:43:24.696Z,24.50
2023-02-08T03:45:58.878Z,25.80
2023-02-08T03:48:29.733Z,26.33
2023-02-08T03:51:02.011Z,25.43
2023-02-08T03:53:38.193Z,26.67
2023-02-08T03:56:11.212Z,25.43
2023-02-08T03:58:46.485Z,26.40
2023-02-08T04:01:21.323Z,26.07
2023-02-08T04:03:53.462Z,25.23
2023-02-08T04:06:23.945Z,25.70
2023-02-08T04:11:21.381Z,25.17
2023-02-08T04:13:49.620Z,23.60
2023-02-08T04:16:17.883Z,25.37
2023-02-08T04:18:46.086Z,24.50
2023-02-08T04:21:14.460Z,26.30
2023-02-08T04:23:44.114Z,25.57
2023-02-08T04:26:12.421Z,25.27
2023-02-08T04:28:40.700Z,24.97
2023-02-08T04:31:09.078Z,24.77
2023-02-08T04:33:37.380Z,24.87
2023-02-08T04:36:06.612Z,23.30
2023-02-08T04:38:34.830Z,24.27
2023-02-08T04:41:04.599Z,24.50
2023-02-08T04:43:32.954Z,24.13
2023-02-08T04:46:01.230Z,24.47
2023-02-08T04:48:29.574Z,25.37
2023-02-08T04:50:58.624Z,24.83
2023-02-08T04:53:27.360Z,26.63
2023-02-08T04:55:55.667Z,25.30
2023-02-08T04:58:25.480Z,24.50
2023-02-08T05:00:53.804Z,24.88
2023-02-08T05:03:22.067Z,24.77
2023-02-08T05:05:58.745Z,26.00
2023-02-08T05:08:27.515Z,25.87
2023-02-08T05:10:56.087Z,25.87
2023-02-08T05:13:25.763Z,27.00
2023-02-08T05:15:54.068Z,26.20
2023-02-08T05:18:22.389Z,26.63
2023-02-08T05:20:56.699Z,26.50
2023-02-08T05:23:25.431Z,26.77
2023-02-08T05:25:53.811Z,26.10
2023-02-08T05:28:22.134Z,26.20
2023-02-08T05:30:52.072Z,26.17
2023-02-08T05:33:20.415Z,25.23
2023-02-08T05:35:48.745Z,25.33
2023-02-08T05:38:16.980Z,25.30
2023-02-08T05:40:45.255Z,25.30
2023-02-08T05:43:13.512Z,26.10
2023-02-08T05:45:41.761Z,26.03
2023-02-08T05:48:11.379Z,25.73
2023-02-08T05:50:39.916Z,25.73
2023-02-08T05:53:11.501Z,25.77
2023-02-08T05:55:39.952Z,26.87
2023-02-08T05:58:08.216Z,25.90
2023-02-08T06:00:36.541Z,26.10
2023-02-08T06:03:04.895Z,25.13
2023-02-08T06:05:34.612Z,25.40
2023-02-08T06:08:03.037Z,25.90
2023-02-08T06:10:31.296Z,25.50
2023-02-08T06:12:59.677Z,25.83
2023-02-08T06:15:28.008Z,24.67
2023-02-08T06:17:56.530Z,25.13
2023-02-08T06:20:25.186Z,24.80
2023-02-08T06:22:55.996Z,25.13
2023-02-08T06:25:24.299Z,25.53
2023-02-08T06:27:52.633Z,25.07
2023-02-08T06:30:21.255Z,24.83
2023-02-08T06:32:49.506Z,24.57
2023-02-08T06:35:18.060Z,24.03
2023-02-08T06:37:46.332Z,23.37
2023-02-08T06:40:16.129Z,24.17
2023-02-08T06:42:44.438Z,25.05
2023-02-08T06:45:13.712Z,24.17
2023-02-08T06:47:42.280Z,25.47
2023-02-08T06:50:11.431Z,25.63
2023-02-08T06:52:39.734Z,24.83
2023-02-08T06:55:08.748Z,24.03
2023-02-08T06:57:38.466Z,25.03
2023-02-08T07:00:08.204Z,26.30
2023-02-08T07:02:36.541Z,26.75
2023-02-08T07:05:04.953Z,24.90
2023-02-08T07:07:33.297Z,23.90
2023-02-08T07:10:01.579Z,25.00
2023-02-08T07:12:29.799Z,24.97
2023-02-08T07:14:59.495Z,25.17
2023-02-08T07:17:27.826Z,23.40
2023-02-08T07:19:56.063Z,25.83
2023-02-08T07:22:24.342Z,25.37
2023-02-08T07:24:52.697Z,24.73
2023-02-08T07:27:21.129Z,24.53
2023-02-08T07:29:49.431Z,26.23
2023-02-08T07:32:19.088Z,24.63
2023-02-08T07:34:47.444Z,24.67
2023-02-08T07:37:15.757Z,25.00
2023-02-08T07:39:44.118Z,24.30
2023-02-08T07:42:12.639Z,24.77
2023-02-08T07:44:53.811Z,22.93
2023-02-08T07:47:23.459Z,23.97
2023-02-08T07:49:51.892Z,22.95
2023-02-08T07:52:20.114Z,22.57
2023-02-08T07:54:48.416Z,22.45
2023-02-08T07:57:21.078Z,22.43
2023-02-08T07:59:49.512Z,22.53
2023-02-08T08:02:18.711Z,23.90
2023-02-08T08:04:48.462Z,24.77
2023-02-08T08:07:16.943Z,24.77
2023-02-08T08:09:45.249Z,23.63
2023-02-08T08:12:13.562Z,24.75
2023-02-08T08:14:41.838Z,22.60
2023-02-08T08:17:10.120Z,22.90
2023-02-08T08:19:38.566Z,24.60
2023-02-08T08:22:08.255Z,23.67
2023-02-08T08:24:36.792Z,23.58
2023-02-08T08:27:06.195Z,25.60
2023-02-08T08:29:35.714Z,24.70
2023-02-08T08:32:04.833Z,24.93
2023-02-08T08:34:33.751Z,24.08
2023-02-08T08:37:03.811Z,24.13
2023-02-08T08:39:33.541Z,24.60
2023-02-08T08:42:04.049Z,24.98
2023-02-08T08:47:02.131Z,24.33
2023-02-08T08:49:30.813Z,23.08
2023-02-08T08:51:59.316Z,24.20
2023-02-08T08:54:27.592Z,24.58
2023-02-08T08:56:57.245Z,24.40
2023-02-08T08:59:25.706Z,24.10
2023-02-08T09:01:54.366Z,23.17
2023-02-08T09:04:23.033Z,24.77
2023-02-08T09:06:51.932Z,24.75
2023-02-08T09:09:21.166Z,25.13
2023-02-08T09:11:50.581Z,24.42
2023-02-08T09:14:20.247Z,24.80
2023-02-08T09:16:49.184Z,24.53
2023-02-08T09:19:17.546Z,24.13
2023-02-08T09:21:45.999Z,24.15
2023-02-08T09:24:14.420Z,25.02
2023-02-08T09:26:42.786Z,23.10
2023-02-08T09:29:11.108Z,24.90
2023-02-08T09:31:41.863Z,23.90
2023-02-08T09:34:10.241Z,23.85
2023-02-08T09:36:41.223Z,23.92
2023-02-08T09:39:13.761Z,24.90
2023-02-08T09:42:16.919Z,24.27
2023-02-08T09:45:03.960Z,25.35
2023-02-08T09:47:36.458Z,24.58
2023-02-08T09:50:11.244Z,24.08
2023-02-08T09:52:44.051Z,25.67
2023-02-08T09:55:29.029Z,23.48
2023-02-08T09:57:59.934Z,24.45
2023-02-08T10:00:36.372Z,23.17
2023-02-08T10:03:09.799Z,22.85
2023-02-08T10:05:38.231Z,23.23
2023-02-08T10:08:10.908Z,23.85
2023-02-08T10:10:52.595Z,23.00
2023-02-08T10:13:41.749Z,21.83
2023-02-08T10:16:20.904Z,19.63
2023-02-08T10:19:01.244Z,20.50
2023-02-08T10:21:52.105Z,20.73
2023-02-08T10:25:06.197Z,18.95
2023-02-08T10:27:45.901Z,20.05
2023-02-08T10:30:30.288Z,19.42
2023-02-08T10:33:03.578Z,18.65
2023-02-08T10:35:37.981Z,18.20
2023-02-08T10:38:31.834Z,18.25
2023-02-08T10:41:08.436Z,18.63
2023-02-08T10:43:43.214Z,18.58
2023-02-08T10:46:20.284Z,18.35
2023-02-08T10:49:04.040Z,18.80
2023-02-08T10:51:33.842Z,18.23
2023-02-08T10:54:02.279Z,17.90
2023-02-08T10:56:44.917Z,18.38
2023-02-08T10:59:23.773Z,19.15
2023-02-08T11:01:52.321Z,18.50
2023-02-08T11:04:21.376Z,17.45
2023-02-08T11:06:54.736Z,18.58
2023-02-08T11:09:27.291Z,18.88
2023-02-08T11:11:56.249Z,19.50
2023-02-08T11:14:45.544Z,18.88
2023-02-08T11:19:58.050Z,18.77
2023-02-08T11:22:31.398Z,19.52
2023-02-08T11:25:03.668Z,18.13
2023-02-08T11:27:36.601Z,19.17
2023-02-08T11:30:25.019Z,18.23
2023-02-08T11:33:19.668Z,17.98
2023-02-08T11:36:14.538Z,17.50
2023-02-08T11:38:44.894Z,17.90
2023-02-08T11:41:19.144Z,17.85
2023-02-08T11:44:01.224Z,18.55
2023-02-08T11:46:34.809Z,18.00
2023-02-08T11:49:04.517Z,17.73
2023-02-08T11:51:35.702Z,17.17
2023-02-08T11:54:07.837Z,17.83
2023-02-08T11:56:36.965Z,17.65
2023-02-08T11:59:19.401Z,18.05
2023-02-08T12:01:47.879Z,18.27
2023-02-08T12:04:18.292Z,17.30
2023-02-08T12:07:20.841Z,18.80
2023-02-08T12:10:22.920Z,18.67
2023-02-08T12:13:21.965Z,17.60
2023-02-08T12:16:04.844Z,19.30
2023-02-08T12:18:56.042Z,16.90
2023-02-08T12:21:29.508Z,17.48
2023-02-08T12:24:00.639Z,17.48
2023-02-08T12:26:54.173Z,17.65
2023-02-08T12:29:47.664Z,18.13
2023-02-08T12:32:45.103Z,17.80
2023-02-08T12:35:57.292Z,16.25
2023-02-08T12:39:20.454Z,16.77
2023-02-08T12:42:08.588Z,16.15
2023-02-08T12:44:51.985Z,15.77
2023-02-08T12:47:39.998Z,15.40
2023-02-08T12:50:19.901Z,15.40
2023-02-08T12:52:52.829Z,14.35
2023-02-08T12:55:26.829Z,15.18
2023-02-08T12:58:01.181Z,15.57
2023-02-08T13:00:33.832Z,14.63
2023-02-08T13:03:09.499Z,15.15
2023-02-08T13:05:50.784Z,14.30
2023-02-08T13:11:18.890Z,14.70
2023-02-08T13:13:59.058Z,15.88
2023-02-08T13:16:34.666Z,14.68
2023-02-08T13:19:26.161Z,16.15
2023-02-08T13:21:56.217Z,15.50
2023-02-08T13:24:34.362Z,14.55
2023-02-08T13:27:03.436Z,15.02
2023-02-08T13:29:34.090Z,14.73
2023-02-08T13:32:08.213Z,15.20
2023-02-08T13:34:41.385Z,14.45
2023-02-08T13:37:25.650Z,14.82
2023-02-08T13:40:04.630Z,14.95
2023-02-08T13:42:39.656Z,16.00
2023-02-08T13:45:12.281Z,15.95
2023-02-08T13:47:47.105Z,14.55
2023-02-08T13:50:46.159Z,15.18
2023-02-08T13:53:17.335Z,14.35
2023-02-08T13:55:59.351Z,14.20
2023-02-08T13:58:55.115Z,16.00
2023-02-08T14:01:27.708Z,15.60
2023-02-08T14:04:31.911Z,15.10
2023-02-08T14:07:15.102Z,14.40
2023-02-08T14:10:09.425Z,15.18
2023-02-08T14:12:45.537Z,15.18
2023-02-08T14:15:33.425Z,16.13
2023-02-08T14:18:03.550Z,15.73
2023-02-08T14:20:38.762Z,14.63
2023-02-08T14:23:22.558Z,14.82
2023-02-08T14:25:53.315Z,14.90
2023-02-08T14:30:58.734Z,15.98
2023-02-08T14:33:31.217Z,16.05
2023-02-08T14:36:02.945Z,15.95
2023-02-08T14:38:59.396Z,15.80
2023-02-08T14:42:00.106Z,15.73
2023-02-08T14:45:06.441Z,15.25
2023-02-08T14:47:57.055Z,16.20
2023-02-08T14:50:38.184Z,15.60
2023-02-08T14:53:20.889Z,15.02
2023-02-08T14:55:55.366Z,15.40
2023-02-08T14:58:30.893Z,15.50
2023-02-08T15:01:03.876Z,15.00
2023-02-08T15:03:33.836Z,15.68
2023-02-08T15:06:53.570Z,14.93
2023-02-08T15:09:25.815Z,15.23
2023-02-08T15:12:01.989Z,14.05
2023-02-08T15:14:32.458Z,15.15
2023-02-08T15:17:01.538Z,14.40
2023-02-08T15:19:35.168Z,14.80
2023-02-08T15:22:21.156Z,14.70
2023-02-08T15:24:56.166Z,12.07
2023-02-08T15:27:27.364Z,12.30
2023-02-08T15:29:55.994Z,12.88
2023-02-08T15:32:27.368Z,12.70
2023-02-08T15:34:58.300Z,14.13
2023-02-08T15:37:27.692Z,13.52
2023-02-08T15:39:59.962Z,13.10
2023-02-08T15:42:30.778Z,13.18
2023-02-08T15:45:00.640Z,13.25
2023-02-08T15:47:35.072Z,13.20
2023-02-08T15:50:04.796Z,13.65
2023-02-08T15:52:37.155Z,14.07
2023-02-08T15:55:10.312Z,13.65
2023-02-08T15:57:44.926Z,13.68
2023-02-08T16:00:18.307Z,13.82
2023-02-08T16:02:54.070Z,14.38
2023-02-08T16:05:25.731Z,14.02
2023-02-08T16:07:56.149Z,13.38
2023-02-08T16:10:34.772Z,14.00
2023-02-08T16:13:07.444Z,13.95
2023-02-08T16:15:43.700Z,14.25
2023-02-08T16:18:36.858Z,13.98
2023-02-08T16:21:07.835Z,12.90
2023-02-08T16:23:40.432Z,13.70
2023-02-08T16:26:21.142Z,13.25
2023-02-08T16:31:30.156Z,13.35
2023-02-08T16:34:05.068Z,14.05
2023-02-08T16:36:41.024Z,13.95
2023-02-08T16:39:42.541Z,14.25
2023-02-08T16:42:35.869Z,14.05
2023-02-08T16:45:24.969Z,14.35
2023-02-08T16:47:55.921Z,14.55
2023-02-08T16:50:28.617Z,15.02
2023-02-08T16:53:01.877Z,15.73
2023-02-08T16:55:34.745Z,14.77
2023-02-08T16:58:04.459Z,14.32
2023-02-08T17:00:35.591Z,15.23
2023-02-08T17:03:03.917Z,13.80
2023-02-08T17:05:36.927Z,14.70
2023-02-08T17:08:07.877Z,15.88
2023-02-08T17:10:36.871Z,14.80
2023-02-08T17:13:19.894Z,15.27
2023-02-08T17:15:51.691Z,15.20
2023-02-08T17:18:21.062Z,15.10
2023-02-08T17:20:49.740Z,15.10
2023-02-08T17:23:18.030Z,14.80
2023-02-08T17:25:46.593Z,14.48
2023-02-08T17:28:19.732Z,14.23
2023-02-08T17:30:50.539Z,13.52
2023-02-08T17:33:19.098Z,13.68
2023-02-08T17:35:49.381Z,13.85
2023-02-08T17:38:19.543Z,14.20
2023-02-08T17:40:48.006Z,18.08
2023-02-08T17:43:17.921Z,13.65
2023-02-08T17:45:47.370Z,14.07
2023-02-08T17:48:16.268Z,13.57
2023-02-08T17:50:50.784Z,13.05
2023-02-08T17:53:19.740Z,14.13
2023-02-08T17:55:48.361Z,14.27
2023-02-08T17:58:18.748Z,14.75
2023-02-08T18:00:47.058Z,14.63
2023-02-08T18:03:17.266Z,14.20
2023-02-08T18:05:45.605Z,13.93
2023-02-08T18:08:13.897Z,14.38
2023-02-08T18:10:42.662Z,15.50
2023-02-08T18:13:11.449Z,14.15
2023-02-08T18:15:41.416Z,14.13
2023-02-08T18:18:09.924Z,14.35
2023-02-08T18:20:38.295Z,15.73
2023-02-08T18:23:06.623Z,20.95
2023-02-08T18:25:34.888Z,16.30
2023-02-08T18:28:03.164Z,15.93
2023-02-08T18:30:32.173Z,16.95
2023-02-08T18:33:01.854Z,16.85
2023-02-08T18:35:30.790Z,16.67
2023-02-08T18:37:59.088Z,15.77
2023-02-08T18:40:27.464Z,15.95
2023-02-08T18:42:55.798Z,16.55
2023-02-08T18:45:24.297Z,16.23
2023-02-08T18:47:52.701Z,15.07
2023-02-08T18:50:22.390Z,15.45
2023-02-08T18:52:50.675Z,15.93
2023-02-08T18:55:19.080Z,15.88
2023-02-08T18:57:48.351Z,16.85
2023-02-08T19:00:17.684Z,16.10
2023-02-08T19:02:46.686Z,15.75
2023-02-08T19:05:15.208Z,14.73
2023-02-08T19:07:44.906Z,16.75
2023-02-08T19:10:13.210Z,15.80
2023-02-08T19:12:41.660Z,17.25
2023-02-08T19:15:11.041Z,17.42
2023-02-08T19:17:39.440Z,17.23
2023-02-08T19:20:09.482Z,16.85
2023-02-08T19:22:37.777Z,17.00
2023-02-08T19:25:08.611Z,20.65
2023-02-08T19:27:37.063Z,17.85
2023-02-08T19:30:06.482Z,17.42
2023-02-08T19:32:34.947Z,16.95
2023-02-08T19:35:03.243Z,16.02
2023-02-08T19:37:31.562Z,15.30
2023-02-08T19:40:00.168Z,14.38
2023-02-08T19:42:29.913Z,14.05
2023-02-08T19:44:58.401Z,14.13
2023-02-08T19:47:43.481Z,14.23
2023-02-08T19:50:15.887Z,13.77
2023-02-08T19:52:44.187Z,13.90
2023-02-08T19:55:12.614Z,12.70
2023-02-08T19:57:42.279Z,13.23
2023-02-08T20:00:22.927Z,13.33
2023-02-08T20:02:51.932Z,12.77
2023-02-08T20:05:20.183Z,12.32
2023-02-08T20:07:48.481Z,12.95
2023-02-08T20:10:17.180Z,13.10
2023-02-08T20:12:46.976Z,12.70
2023-02-08T20:15:15.326Z,13.02
2023-02-08T20:17:44.588Z,12.35
2023-02-08T20:20:13.414Z,12.73
2023-02-08T20:22:41.883Z,12.30
2023-02-08T20:25:10.202Z,11.98
2023-02-08T20:27:38.510Z,12.65
2023-02-08T20:30:09.341Z,11.90
2023-02-08T20:32:37.716Z,12.02
2023-02-08T20:35:06.458Z,11.63
2023-02-08T20:37:35.094Z,10.73
2023-02-08T20:40:03.669Z,12.27
2023-02-08T20:42:31.981Z,12.27
2023-02-08T20:45:00.409Z,11.68
2023-02-08T20:47:33.871Z,11.82
2023-02-08T20:50:16.812Z,11.65
2023-02-08T20:52:46.966Z,12.57
2023-02-08T20:55:15.285Z,12.13
2023-02-08T20:57:43.642Z,11.75
2023-02-08T21:00:14.336Z,11.98
2023-02-08T21:02:44.168Z,11.93
2023-02-08T21:05:12.546Z,12.20
2023-02-08T21:07:41.290Z,12.40
2023-02-08T21:10:10.105Z,11.80
2023-02-08T21:12:38.462Z,12.48
2023-02-08T21:15:08.451Z,12.07
2023-02-08T21:17:40.532Z,14.30
2023-02-08T21:20:12.821Z,11.75
2023-02-08T21:22:44.127Z,12.38
2023-02-08T21:25:12.691Z,12.20
2023-02-08T21:27:41.015Z,12.70
2023-02-08T21:30:11.244Z,12.20
2023-02-08T21:32:41.724Z,11.73
2023-02-08T21:35:11.498Z,12.07
2023-02-08T21:37:39.804Z,12.05
2023-02-08T21:40:08.617Z,11.98
2023-02-08T21:42:36.910Z,13.55
2023-02-08T21:45:06.131Z,13.10
2023-02-08T21:47:34.396Z,12.23
2023-02-08T21:50:20.121Z,12.60
2023-02-08T21:53:07.157Z,12.00
2023-02-08T21:55:35.483Z,12.30
2023-02-08T21:58:03.738Z,13.10
2023-02-08T22:00:32.080Z,13.93
2023-02-08T22:03:00.408Z,13.55
2023-02-08T22:05:46.601Z,12.77
2023-02-08T22:08:16.312Z,12.80
2023-02-08T22:10:50.342Z,14.60
2023-02-08T22:13:26.138Z,12.98
2023-02-08T22:15:54.418Z,13.63
2023-02-08T22:18:23.000Z,14.70
2023-02-08T22:20:52.624Z,14.27
2023-02-08T22:23:22.596Z,13.03
2023-02-08T22:25:50.952Z,13.35
2023-02-08T22:28:19.427Z,13.75
2023-02-08T22:30:49.376Z,13.48
2023-02-08T22:33:17.970Z,13.95
2023-02-08T22:35:46.301Z,14.48
2023-02-08T22:38:14.671Z,14.07
2023-02-08T22:40:44.675Z,14.25
2023-02-08T22:43:13.304Z,13.55
2023-02-08T22:45:42.319Z,14.82
2023-02-08T22:48:10.780Z,13.93
2023-02-08T22:50:39.469Z,15.05
2023-02-08T22:53:07.806Z,15.25
2023-02-08T22:55:36.180Z,13.85
2023-02-08T22:58:05.965Z,14.45
2023-02-08T23:00:34.306Z,15.02
2023-02-08T23:03:02.705Z,14.85
2023-02-08T23:05:31.042Z,14.27
2023-02-08T23:07:59.404Z,14.75
2023-02-08T23:10:27.780Z,13.90
2023-02-08T23:12:56.176Z,14.55
2023-02-08T23:15:25.837Z,13.88
2023-02-08T23:17:54.757Z,14.90
2023-02-08T23:20:23.098Z,14.50
2023-02-08T23:22:51.509Z,14.13
2023-02-08T23:25:20.407Z,15.00
2023-02-08T23:27:48.891Z,15.32
2023-02-08T23:30:17.412Z,15.18
2023-02-08T23:32:47.438Z,15.63
2023-02-08T23:35:16.863Z,15.30
2023-02-08T23:37:45.227Z,14.68
2023-02-08T23:40:13.884Z,14.88
2023-02-08T23:42:42.126Z,14.93
2023-02-08T23:45:11.264Z,15.48
2023-02-08T23:47:40.278Z,16.55
2023-02-08T23:50:11.445Z,14.98
2023-02-08T23:52:39.783Z,15.23
2023-02-08T23:55:08.888Z,15.60
2023-02-08T23:57:38.959Z,14.73
